sensor_id;sensor_type;location;lat;lon;timestamp;pressure;altitude;pressure_sealevel;temperature;humidity
59829;BME280;45708;51.848;107.620;2023-09-08T00:02:50;94560.19;;;7.29;88.67
59829;BME280;45708;51.848;107.620;2023-09-08T00:07:51;94564.91;;;7.52;89.29
59829;BME280;45708;51.848;107.620;2023-09-08T00:12:52;94579.09;;;7.45;89.02
59829;BME280;45708;51.848;107.620;2023-09-08T00:17:52;94532.03;;;7.05;89.30
59829;BME280;45708;51.848;107.620;2023-09-08T00:22:53;94562.75;;;7.05;89.11
59829;BME280;45708;51.848;107.620;2023-09-08T00:27:54;94565.13;;;7.13;89.14
59829;BME280;45708;51.848;107.620;2023-09-08T00:32:55;94569.25;;;7.33;89.32
59829;BME280;45708;51.848;107.620;2023-09-08T00:37:56;94570.22;;;7.71;89.60
59829;BME280;45708;51.848;107.620;2023-09-08T00:42:56;94577.44;;;8.07;89.68
59829;BME280;45708;51.848;107.620;2023-09-08T00:47:57;94574.50;;;8.15;89.09
59829;BME280;45708;51.848;107.620;2023-09-08T00:52:58;94579.66;;;8.28;88.98
59829;BME280;45708;51.848;107.620;2023-09-08T00:58:00;94579.13;;;8.44;88.66
59829;BME280;45708;51.848;107.620;2023-09-08T01:03:01;94566.84;;;8.38;88.60
59829;BME280;45708;51.848;107.620;2023-09-08T01:08:02;94567.59;;;8.64;88.98
59829;BME280;45708;51.848;107.620;2023-09-08T01:13:03;94574.38;;;9.08;88.22
59829;BME280;45708;51.848;107.620;2023-09-08T01:18:04;94576.50;;;9.59;87.30
59829;BME280;45708;51.848;107.620;2023-09-08T01:28:12;94559.44;;;10.39;86.23
59829;BME280;45708;51.848;107.620;2023-09-08T01:33:13;94548.31;;;12.36;82.68
59829;BME280;45708;51.848;107.620;2023-09-08T01:38:14;94549.03;;;13.84;77.81
59829;BME280;45708;51.848;107.620;2023-09-08T01:43:15;94558.88;;;14.21;76.88
59829;BME280;45708;51.848;107.620;2023-09-08T01:48:16;94554.41;;;16.14;71.25
59829;BME280;45708;51.848;107.620;2023-09-08T01:53:16;94545.19;;;17.17;69.29
59829;BME280;45708;51.848;107.620;2023-09-08T01:58:18;94552.38;;;17.26;68.71
59829;BME280;45708;51.848;107.620;2023-09-08T02:03:18;94552.09;;;17.33;68.40
59829;BME280;45708;51.848;107.620;2023-09-08T02:08:19;94553.59;;;17.99;65.98
59829;BME280;45708;51.848;107.620;2023-09-08T02:13:20;94553.34;;;15.95;70.38
59829;BME280;45708;51.848;107.620;2023-09-08T02:18:21;94544.81;;;15.88;69.48
59829;BME280;45708;51.848;107.620;2023-09-08T02:23:22;94538.44;;;14.21;72.49
59829;BME280;45708;51.848;107.620;2023-09-08T02:28:22;94526.94;;;13.03;74.53
59829;BME280;45708;51.848;107.620;2023-09-08T02:33:23;94516.56;;;12.79;74.77
59829;BME280;45708;51.848;107.620;2023-09-08T02:38:24;94521.16;;;13.06;74.35
59829;BME280;45708;51.848;107.620;2023-09-08T02:43:25;94518.38;;;12.96;74.58
59829;BME280;45708;51.848;107.620;2023-09-08T02:48:25;94516.41;;;13.08;74.48
59829;BME280;45708;51.848;107.620;2023-09-08T02:53:26;94516.84;;;13.22;73.99
59829;BME280;45708;51.848;107.620;2023-09-08T02:58:27;94522.78;;;13.34;73.69
59829;BME280;45708;51.848;107.620;2023-09-08T03:03:28;94521.50;;;13.36;73.83
59829;BME280;45708;51.848;107.620;2023-09-08T03:08:29;94514.34;;;13.37;74.10
59829;BME280;45708;51.848;107.620;2023-09-08T03:13:31;94519.56;;;13.54;73.89
59829;BME280;45708;51.848;107.620;2023-09-08T03:18:33;94509.66;;;13.76;73.67
59829;BME280;45708;51.848;107.620;2023-09-08T03:23:42;94501.75;;;14.18;73.27
59829;BME280;45708;51.848;107.620;2023-09-08T03:28:43;94493.66;;;14.40;72.26
59829;BME280;45708;51.848;107.620;2023-09-08T03:33:45;94490.19;;;14.35;72.59
59829;BME280;45708;51.848;107.620;2023-09-08T03:38:46;94481.19;;;14.41;72.42
59829;BME280;45708;51.848;107.620;2023-09-08T03:43:46;94469.16;;;14.75;71.54
59829;BME280;45708;51.848;107.620;2023-09-08T03:48:47;94474.00;;;14.88;71.83
59829;BME280;45708;51.848;107.620;2023-09-08T03:53:48;94464.28;;;15.35;71.00
59829;BME280;45708;51.848;107.620;2023-09-08T03:58:49;94457.44;;;15.59;70.55
59829;BME280;45708;51.848;107.620;2023-09-08T04:03:49;94458.53;;;15.63;69.79
59829;BME280;45708;51.848;107.620;2023-09-08T04:08:50;94454.25;;;15.62;69.47
59829;BME280;45708;51.848;107.620;2023-09-08T04:13:51;94449.44;;;15.79;69.64
59829;BME280;45708;51.848;107.620;2023-09-08T04:18:52;94436.09;;;16.30;68.50
59829;BME280;45708;51.848;107.620;2023-09-08T04:23:53;94429.31;;;16.73;67.74
59829;BME280;45708;51.848;107.620;2023-09-08T04:28:54;94429.09;;;16.50;67.84
59829;BME280;45708;51.848;107.620;2023-09-08T04:33:54;94422.19;;;16.38;68.24
59829;BME280;45708;51.848;107.620;2023-09-08T04:38:55;94431.72;;;16.60;67.94
59829;BME280;45708;51.848;107.620;2023-09-08T04:43:56;94429.88;;;16.55;67.40
59829;BME280;45708;51.848;107.620;2023-09-08T04:48:57;94427.47;;;16.59;67.31
59829;BME280;45708;51.848;107.620;2023-09-08T04:53:58;94427.91;;;16.91;67.04
59829;BME280;45708;51.848;107.620;2023-09-08T04:58:59;94414.81;;;17.39;66.02
59829;BME280;45708;51.848;107.620;2023-09-08T05:03:59;94422.38;;;17.27;65.58
59829;BME280;45708;51.848;107.620;2023-09-08T05:09:00;94416.16;;;17.37;65.86
59829;BME280;45708;51.848;107.620;2023-09-08T05:14:02;94417.94;;;17.51;65.60
59829;BME280;45708;51.848;107.620;2023-09-08T05:19:03;94419.53;;;17.52;65.40
59829;BME280;45708;51.848;107.620;2023-09-08T05:24:04;94406.22;;;17.47;65.23
59829;BME280;45708;51.848;107.620;2023-09-08T05:29:05;94402.66;;;17.62;65.40
59829;BME280;45708;51.848;107.620;2023-09-08T05:34:06;94399.19;;;18.24;64.13
59829;BME280;45708;51.848;107.620;2023-09-08T05:39:07;94385.75;;;18.77;62.83
59829;BME280;45708;51.848;107.620;2023-09-08T05:44:07;94380.53;;;18.67;62.76
59829;BME280;45708;51.848;107.620;2023-09-08T05:49:08;94385.31;;;18.46;63.45
59829;BME280;45708;51.848;107.620;2023-09-08T05:54:09;94381.31;;;18.44;62.73
59829;BME280;45708;51.848;107.620;2023-09-08T05:59:10;94379.84;;;18.33;63.12
59829;BME280;45708;51.848;107.620;2023-09-08T06:04:11;94384.88;;;18.63;62.78
59829;BME280;45708;51.848;107.620;2023-09-08T06:09:12;94374.06;;;19.11;61.39
59829;BME280;45708;51.848;107.620;2023-09-08T06:14:13;94381.00;;;19.50;60.90
59829;BME280;45708;51.848;107.620;2023-09-08T06:19:13;94372.19;;;19.82;59.74
59829;BME280;45708;51.848;107.620;2023-09-08T06:24:14;94366.31;;;20.12;59.18
59829;BME280;45708;51.848;107.620;2023-09-08T06:29:15;94364.28;;;19.90;58.99
59829;BME280;45708;51.848;107.620;2023-09-08T06:34:16;94362.66;;;19.75;59.62
59829;BME280;45708;51.848;107.620;2023-09-08T06:39:16;94351.28;;;19.97;58.93
59829;BME280;45708;51.848;107.620;2023-09-08T06:44:18;94341.84;;;19.86;59.25
59829;BME280;45708;51.848;107.620;2023-09-08T06:49:19;94350.44;;;19.69;59.59
59829;BME280;45708;51.848;107.620;2023-09-08T06:54:20;94358.13;;;19.90;58.93
59829;BME280;45708;51.848;107.620;2023-09-08T06:59:21;94371.38;;;19.67;59.00
59829;BME280;45708;51.848;107.620;2023-09-08T07:04:22;94372.13;;;19.54;58.71
59829;BME280;45708;51.848;107.620;2023-09-08T07:09:22;94375.53;;;19.22;59.41
59829;BME280;45708;51.848;107.620;2023-09-08T07:14:23;94375.78;;;19.39;58.88
59829;BME280;45708;51.848;107.620;2023-09-08T07:19:26;94368.00;;;19.24;58.89
59829;BME280;45708;51.848;107.620;2023-09-08T07:24:27;94365.94;;;18.78;59.46
59829;BME280;45708;51.848;107.620;2023-09-08T07:29:28;94373.81;;;18.46;60.07
59829;BME280;45708;51.848;107.620;2023-09-08T07:34:28;94380.00;;;18.41;60.18
59829;BME280;45708;51.848;107.620;2023-09-08T07:39:29;94368.34;;;18.32;60.30
59829;BME280;45708;51.848;107.620;2023-09-08T07:44:30;94359.47;;;18.37;60.56
59829;BME280;45708;51.848;107.620;2023-09-08T07:49:33;94368.41;;;18.27;61.07
59829;BME280;45708;51.848;107.620;2023-09-08T07:54:34;94352.94;;;18.48;60.54
59829;BME280;45708;51.848;107.620;2023-09-08T07:59:35;94352.06;;;18.52;60.64
59829;BME280;45708;51.848;107.620;2023-09-08T08:04:36;94361.97;;;18.52;60.80
59829;BME280;45708;51.848;107.620;2023-09-08T08:09:37;94366.38;;;18.67;60.23
59829;BME280;45708;51.848;107.620;2023-09-08T08:14:38;94370.06;;;18.71;59.99
59829;BME280;45708;51.848;107.620;2023-09-08T08:19:39;94368.53;;;18.60;59.46
59829;BME280;45708;51.848;107.620;2023-09-08T08:24:40;94366.16;;;18.58;59.43
59829;BME280;45708;51.848;107.620;2023-09-08T08:29:41;94355.31;;;18.26;59.58
59829;BME280;45708;51.848;107.620;2023-09-08T08:34:41;94365.25;;;18.20;60.05
59829;BME280;45708;51.848;107.620;2023-09-08T08:39:42;94364.13;;;18.26;59.27
59829;BME280;45708;51.848;107.620;2023-09-08T08:44:43;94358.66;;;18.36;58.71
59829;BME280;45708;51.848;107.620;2023-09-08T08:49:45;94362.41;;;18.59;58.17
59829;BME280;45708;51.848;107.620;2023-09-08T08:54:46;94362.91;;;18.66;57.66
59829;BME280;45708;51.848;107.620;2023-09-08T08:59:47;94352.41;;;18.70;57.73
59829;BME280;45708;51.848;107.620;2023-09-08T09:04:49;94358.78;;;18.50;57.67
59829;BME280;45708;51.848;107.620;2023-09-08T09:09:50;94373.63;;;18.13;57.95
59829;BME280;45708;51.848;107.620;2023-09-08T09:14:55;94380.88;;;17.79;58.61
59829;BME280;45708;51.848;107.620;2023-09-08T09:20:18;94385.38;;;17.49;59.26
59829;BME280;45708;51.848;107.620;2023-09-08T09:25:23;94394.66;;;17.23;59.10
59829;BME280;45708;51.848;107.620;2023-09-08T09:30:25;94393.66;;;17.09;59.58
59829;BME280;45708;51.848;107.620;2023-09-08T09:35:49;94391.56;;;17.06;59.77
59829;BME280;45708;51.848;107.620;2023-09-08T09:40:50;94401.75;;;16.93;59.71
59829;BME280;45708;51.848;107.620;2023-09-08T09:45:51;94411.88;;;16.96;59.76
59829;BME280;45708;51.848;107.620;2023-09-08T09:50:52;94407.09;;;16.93;60.02
59829;BME280;45708;51.848;107.620;2023-09-08T09:55:53;94410.34;;;16.80;60.15
59829;BME280;45708;51.848;107.620;2023-09-08T10:00:54;94413.06;;;16.70;60.39
59829;BME280;45708;51.848;107.620;2023-09-08T10:05:55;94417.09;;;16.52;60.67
59829;BME280;45708;51.848;107.620;2023-09-08T10:10:57;94406.25;;;16.28;60.90
59829;BME280;45708;51.848;107.620;2023-09-08T10:16:00;94420.09;;;16.20;61.75
59829;BME280;45708;51.848;107.620;2023-09-08T10:21:04;94404.69;;;16.07;61.64
59829;BME280;45708;51.848;107.620;2023-09-08T10:26:06;94394.06;;;15.87;62.29
59829;BME280;45708;51.848;107.620;2023-09-08T10:31:09;94410.03;;;15.76;62.62
59829;BME280;45708;51.848;107.620;2023-09-08T10:36:11;94423.34;;;15.61;62.99
59829;BME280;45708;51.848;107.620;2023-09-08T10:46:23;94412.66;;;15.41;63.03
59829;BME280;45708;51.848;107.620;2023-09-08T10:51:25;94368.47;;;15.09;63.35
59829;BME280;45708;51.848;107.620;2023-09-08T10:57:15;94414.00;;;15.38;63.27
59829;BME280;45708;51.848;107.620;2023-09-08T11:01:50;94423.28;;;15.20;63.71
59829;BME280;45708;51.848;107.620;2023-09-08T11:06:51;94424.31;;;14.99;63.69
59829;BME280;45708;51.848;107.620;2023-09-08T11:11:51;94396.59;;;14.80;64.25
59829;BME280;45708;51.848;107.620;2023-09-08T11:16:52;94394.19;;;14.68;63.62
59829;BME280;45708;51.848;107.620;2023-09-08T11:21:53;94384.28;;;14.58;63.45
59829;BME280;45708;51.848;107.620;2023-09-08T11:26:54;94394.63;;;14.50;63.88
59829;BME280;45708;51.848;107.620;2023-09-08T11:31:55;94391.91;;;14.40;63.95
59829;BME280;45708;51.848;107.620;2023-09-08T11:36:57;94396.94;;;14.41;63.78
59829;BME280;45708;51.848;107.620;2023-09-08T11:42:00;94413.69;;;14.37;63.77
59829;BME280;45708;51.848;107.620;2023-09-08T11:47:02;94435.69;;;14.27;64.47
59829;BME280;45708;51.848;107.620;2023-09-08T11:52:04;94441.97;;;14.16;64.99
59829;BME280;45708;51.848;107.620;2023-09-08T11:57:06;94449.09;;;14.05;65.18
59829;BME280;45708;51.848;107.620;2023-09-08T12:02:06;94459.72;;;14.05;65.04
59829;BME280;45708;51.848;107.620;2023-09-08T12:07:12;94467.19;;;14.08;64.87
59829;BME280;45708;51.848;107.620;2023-09-08T12:12:13;94452.03;;;14.09;65.36
59829;BME280;45708;51.848;107.620;2023-09-08T12:17:14;94458.94;;;14.05;65.20
59829;BME280;45708;51.848;107.620;2023-09-08T12:22:15;94447.13;;;13.90;65.32
59829;BME280;45708;51.848;107.620;2023-09-08T12:27:17;94455.63;;;13.87;65.68
59829;BME280;45708;51.848;107.620;2023-09-08T12:32:18;94474.72;;;13.84;65.36
59829;BME280;45708;51.848;107.620;2023-09-08T12:37:23;94471.19;;;13.79;65.76
59829;BME280;45708;51.848;107.620;2023-09-08T12:42:24;94478.31;;;13.73;66.57
59829;BME280;45708;51.848;107.620;2023-09-08T12:47:25;94476.72;;;13.72;66.84
59829;BME280;45708;51.848;107.620;2023-09-08T12:52:25;94467.53;;;13.53;67.53
59829;BME280;45708;51.848;107.620;2023-09-08T12:57:26;94455.97;;;13.10;69.03
59829;BME280;45708;51.848;107.620;2023-09-08T13:02:27;94434.50;;;12.63;70.21
59829;BME280;45708;51.848;107.620;2023-09-08T13:07:28;94449.50;;;12.57;71.26
59829;BME280;45708;51.848;107.620;2023-09-08T13:12:29;94443.38;;;12.52;71.38
59829;BME280;45708;51.848;107.620;2023-09-08T13:17:30;94437.75;;;12.48;71.95
59829;BME280;45708;51.848;107.620;2023-09-08T13:22:31;94445.22;;;12.51;71.99
59829;BME280;45708;51.848;107.620;2023-09-08T13:27:32;94408.38;;;12.28;72.05
59829;BME280;45708;51.848;107.620;2023-09-08T13:32:33;94470.34;;;12.70;72.29
59829;BME280;45708;51.848;107.620;2023-09-08T13:37:34;94468.06;;;12.79;72.59
59829;BME280;45708;51.848;107.620;2023-09-08T13:42:35;94461.03;;;12.90;72.63
59829;BME280;45708;51.848;107.620;2023-09-08T13:47:35;94462.38;;;12.92;72.85
59829;BME280;45708;51.848;107.620;2023-09-08T13:52:38;94452.25;;;12.62;73.81
59829;BME280;45708;51.848;107.620;2023-09-08T13:57:39;94457.19;;;12.15;74.78
59829;BME280;45708;51.848;107.620;2023-09-08T14:02:40;94461.06;;;11.91;75.37
59829;BME280;45708;51.848;107.620;2023-09-08T14:07:40;94464.44;;;11.86;76.21
59829;BME280;45708;51.848;107.620;2023-09-08T14:12:41;94478.22;;;11.88;77.08
59829;BME280;45708;51.848;107.620;2023-09-08T14:17:42;94476.44;;;11.77;78.07
59829;BME280;45708;51.848;107.620;2023-09-08T14:22:43;94478.53;;;11.75;78.37
59829;BME280;45708;51.848;107.620;2023-09-08T14:27:44;94482.69;;;11.71;79.08
59829;BME280;45708;51.848;107.620;2023-09-08T14:32:44;94481.09;;;11.70;79.63
59829;BME280;45708;51.848;107.620;2023-09-08T14:37:48;94474.38;;;11.79;80.50
59829;BME280;45708;51.848;107.620;2023-09-08T14:42:49;94475.59;;;11.88;80.46
59829;BME280;45708;51.848;107.620;2023-09-08T14:47:50;94477.25;;;11.94;80.38
59829;BME280;45708;51.848;107.620;2023-09-08T14:52:51;94480.72;;;11.95;81.39
59829;BME280;45708;51.848;107.620;2023-09-08T14:57:52;94486.72;;;11.90;81.70
59829;BME280;45708;51.848;107.620;2023-09-08T15:02:53;94488.16;;;11.81;82.02
59829;BME280;45708;51.848;107.620;2023-09-08T15:07:53;94497.38;;;11.62;82.03
59829;BME280;45708;51.848;107.620;2023-09-08T15:12:55;94494.38;;;11.41;83.07
59829;BME280;45708;51.848;107.620;2023-09-08T15:17:55;94489.84;;;11.25;83.41
59829;BME280;45708;51.848;107.620;2023-09-08T15:22:56;94473.16;;;11.08;82.76
59829;BME280;45708;51.848;107.620;2023-09-08T15:27:57;94484.69;;;11.02;84.09
59829;BME280;45708;51.848;107.620;2023-09-08T15:33:02;94491.03;;;10.89;83.67
59829;BME280;45708;51.848;107.620;2023-09-08T15:38:03;94493.69;;;10.77;84.03
59829;BME280;45708;51.848;107.620;2023-09-08T15:43:04;94496.47;;;10.82;84.40
59829;BME280;45708;51.848;107.620;2023-09-08T15:48:05;94507.31;;;10.97;84.28
59829;BME280;45708;51.848;107.620;2023-09-08T15:53:06;94498.16;;;11.17;84.93
59829;BME280;45708;51.848;107.620;2023-09-08T15:58:07;94480.69;;;11.16;84.29
59829;BME280;45708;51.848;107.620;2023-09-08T16:03:08;94496.75;;;11.26;84.53
59829;BME280;45708;51.848;107.620;2023-09-08T16:08:09;94492.09;;;11.33;84.78
59829;BME280;45708;51.848;107.620;2023-09-08T16:13:09;94493.22;;;11.37;84.47
59829;BME280;45708;51.848;107.620;2023-09-08T16:18:10;94491.31;;;11.33;85.06
59829;BME280;45708;51.848;107.620;2023-09-08T16:23:12;94494.84;;;11.38;85.13
59829;BME280;45708;51.848;107.620;2023-09-08T16:28:12;94492.09;;;11.33;84.94
59829;BME280;45708;51.848;107.620;2023-09-08T16:33:13;94479.75;;;11.22;85.05
59829;BME280;45708;51.848;107.620;2023-09-08T16:38:14;94498.34;;;11.27;85.56
59829;BME280;45708;51.848;107.620;2023-09-08T16:43:16;94487.34;;;11.18;85.13
59829;BME280;45708;51.848;107.620;2023-09-08T16:48:17;94470.28;;;11.09;85.30
59829;BME280;45708;51.848;107.620;2023-09-08T16:53:17;94472.47;;;11.01;85.89
59829;BME280;45708;51.848;107.620;2023-09-08T16:58:18;94488.81;;;10.97;85.48
59829;BME280;45708;51.848;107.620;2023-09-08T17:03:19;94484.56;;;10.96;86.03
59829;BME280;45708;51.848;107.620;2023-09-08T17:08:20;94486.41;;;10.96;85.95
59829;BME280;45708;51.848;107.620;2023-09-08T17:13:20;94483.81;;;10.84;86.12
59829;BME280;45708;51.848;107.620;2023-09-08T17:18:21;94482.00;;;10.73;86.11
59829;BME280;45708;51.848;107.620;2023-09-08T17:23:23;94476.53;;;10.63;86.06
59829;BME280;45708;51.848;107.620;2023-09-08T17:28:24;94468.47;;;10.58;85.86
59829;BME280;45708;51.848;107.620;2023-09-08T17:33:25;94467.03;;;10.50;86.22
59829;BME280;45708;51.848;107.620;2023-09-08T17:38:26;94459.81;;;10.46;86.27
59829;BME280;45708;51.848;107.620;2023-09-08T17:43:27;94462.56;;;10.39;87.17
59829;BME280;45708;51.848;107.620;2023-09-08T17:48:27;94468.63;;;10.40;86.82
59829;BME280;45708;51.848;107.620;2023-09-08T17:53:28;94467.88;;;10.27;86.63
59829;BME280;45708;51.848;107.620;2023-09-08T17:58:29;94472.69;;;10.30;87.10
59829;BME280;45708;51.848;107.620;2023-09-08T18:03:30;94468.28;;;10.48;87.25
59829;BME280;45708;51.848;107.620;2023-09-08T18:08:30;94474.94;;;10.62;86.64
59829;BME280;45708;51.848;107.620;2023-09-08T18:13:31;94472.56;;;10.77;87.38
59829;BME280;45708;51.848;107.620;2023-09-08T18:18:32;94463.72;;;10.83;86.92
59829;BME280;45708;51.848;107.620;2023-09-08T18:23:33;94470.19;;;11.04;86.75
59829;BME280;45708;51.848;107.620;2023-09-08T18:28:34;94473.00;;;11.14;86.82
59829;BME280;45708;51.848;107.620;2023-09-08T18:33:34;94474.91;;;11.19;87.10
59829;BME280;45708;51.848;107.620;2023-09-08T18:38:35;94479.75;;;11.22;86.12
59829;BME280;45708;51.848;107.620;2023-09-08T18:43:36;94485.63;;;11.24;86.21
59829;BME280;45708;51.848;107.620;2023-09-08T18:48:37;94482.41;;;11.22;86.51
59829;BME280;45708;51.848;107.620;2023-09-08T18:53:38;94487.22;;;11.25;86.44
59829;BME280;45708;51.848;107.620;2023-09-08T18:58:39;94489.84;;;11.25;86.62
59829;BME280;45708;51.848;107.620;2023-09-08T19:03:40;94485.06;;;11.22;86.45
59829;BME280;45708;51.848;107.620;2023-09-08T19:08:41;94489.06;;;11.24;86.30
59829;BME280;45708;51.848;107.620;2023-09-08T19:13:42;94491.47;;;11.26;86.63
59829;BME280;45708;51.848;107.620;2023-09-08T19:18:42;94477.56;;;11.19;86.13
59829;BME280;45708;51.848;107.620;2023-09-08T19:23:43;94479.03;;;11.26;86.17
59829;BME280;45708;51.848;107.620;2023-09-08T19:28:44;94483.06;;;11.29;86.65
59829;BME280;45708;51.848;107.620;2023-09-08T19:33:45;94484.41;;;11.32;86.12
59829;BME280;45708;51.848;107.620;2023-09-08T19:38:46;94488.09;;;11.31;86.22
59829;BME280;45708;51.848;107.620;2023-09-08T19:43:47;94483.53;;;11.26;86.04
59829;BME280;45708;51.848;107.620;2023-09-08T19:48:48;94468.72;;;11.25;86.36
59829;BME280;45708;51.848;107.620;2023-09-08T19:53:49;94467.22;;;11.17;86.00
59829;BME280;45708;51.848;107.620;2023-09-08T19:58:50;94480.69;;;11.16;86.07
59829;BME280;45708;51.848;107.620;2023-09-08T20:03:51;94496.22;;;11.12;85.85
59829;BME280;45708;51.848;107.620;2023-09-08T20:08:51;94493.25;;;11.09;86.41
59829;BME280;45708;51.848;107.620;2023-09-08T20:13:52;94495.41;;;11.12;85.66
59829;BME280;45708;51.848;107.620;2023-09-08T20:18:53;94490.13;;;11.12;86.06
59829;BME280;45708;51.848;107.620;2023-09-08T20:23:54;94478.44;;;11.08;86.35
59829;BME280;45708;51.848;107.620;2023-09-08T20:28:55;94472.63;;;10.94;85.70
59829;BME280;45708;51.848;107.620;2023-09-08T20:33:56;94477.75;;;10.72;85.71
59829;BME280;45708;51.848;107.620;2023-09-08T20:38:57;94488.13;;;10.62;86.92
59829;BME280;45708;51.848;107.620;2023-09-08T20:43:58;94489.41;;;10.48;86.50
59829;BME280;45708;51.848;107.620;2023-09-08T20:48:59;94436.06;;;10.11;86.83
59829;BME280;45708;51.848;107.620;2023-09-08T20:59:09;94506.97;;;10.54;86.34
59829;BME280;45708;51.848;107.620;2023-09-08T21:04:11;94502.47;;;10.54;86.67
59829;BME280;45708;51.848;107.620;2023-09-08T21:09:12;94493.66;;;10.49;86.41
59829;BME280;45708;51.848;107.620;2023-09-08T21:14:12;94501.78;;;10.59;86.43
59829;BME280;45708;51.848;107.620;2023-09-08T21:19:13;94500.75;;;10.60;85.72
59829;BME280;45708;51.848;107.620;2023-09-08T21:24:14;94503.75;;;10.63;84.73
59829;BME280;45708;51.848;107.620;2023-09-08T21:29:15;94520.69;;;10.79;84.00
59829;BME280;45708;51.848;107.620;2023-09-08T21:34:17;94516.31;;;10.85;84.18
59829;BME280;45708;51.848;107.620;2023-09-08T21:39:18;94522.88;;;10.82;83.24
59829;BME280;45708;51.848;107.620;2023-09-08T21:44:19;94494.41;;;10.61;82.70
59829;BME280;45708;51.848;107.620;2023-09-08T21:49:20;94524.50;;;10.60;83.17
59829;BME280;45708;51.848;107.620;2023-09-08T21:54:21;94510.31;;;10.38;82.58
59829;BME280;45708;51.848;107.620;2023-09-08T21:59:22;94511.25;;;10.31;82.80
59829;BME280;45708;51.848;107.620;2023-09-08T22:04:23;94519.41;;;10.30;82.90
59829;BME280;45708;51.848;107.620;2023-09-08T22:09:23;94530.66;;;10.25;83.35
59829;BME280;45708;51.848;107.620;2023-09-08T22:14:24;94514.06;;;10.18;82.28
59829;BME280;45708;51.848;107.620;2023-09-08T22:19:25;94514.00;;;10.25;82.13
59829;BME280;45708;51.848;107.620;2023-09-08T22:24:26;94531.91;;;10.34;81.60
59829;BME280;45708;51.848;107.620;2023-09-08T22:29:27;94546.25;;;10.50;81.62
59829;BME280;45708;51.848;107.620;2023-09-08T22:34:27;94547.25;;;10.61;80.47
59829;BME280;45708;51.848;107.620;2023-09-08T22:39:28;94555.50;;;10.76;80.16
59829;BME280;45708;51.848;107.620;2023-09-08T22:44:29;94557.66;;;10.91;79.18
59829;BME280;45708;51.848;107.620;2023-09-08T22:49:33;94555.00;;;11.03;79.26
59829;BME280;45708;51.848;107.620;2023-09-08T22:54:34;94562.63;;;11.16;78.47
59829;BME280;45708;51.848;107.620;2023-09-08T22:59:34;94558.59;;;11.25;78.03
59829;BME280;45708;51.848;107.620;2023-09-08T23:04:35;94564.25;;;11.45;77.72
59829;BME280;45708;51.848;107.620;2023-09-08T23:09:36;94560.75;;;11.56;77.36
59829;BME280;45708;51.848;107.620;2023-09-08T23:14:37;94582.47;;;11.58;77.85
59829;BME280;45708;51.848;107.620;2023-09-08T23:19:37;94588.59;;;11.76;76.98
59829;BME280;45708;51.848;107.620;2023-09-08T23:24:38;94598.38;;;11.87;76.45
59829;BME280;45708;51.848;107.620;2023-09-08T23:29:41;94580.97;;;11.91;76.85
59829;BME280;45708;51.848;107.620;2023-09-08T23:34:42;94595.31;;;11.95;76.43
59829;BME280;45708;51.848;107.620;2023-09-08T23:39:43;94608.63;;;11.83;76.54
59829;BME280;45708;51.848;107.620;2023-09-08T23:44:44;94614.34;;;12.09;75.86
59829;BME280;45708;51.848;107.620;2023-09-08T23:49:44;94617.81;;;12.09;75.33
59829;BME280;45708;51.848;107.620;2023-09-08T23:54:45;94597.47;;;11.98;74.69
59829;BME280;45708;51.848;107.620;2023-09-08T23:59:46;94593.66;;;12.23;74.07
